Time;durP1;ratioP1;P1;durP2;ratioP2;P2;SDS_P1;SDS_P2;PMS_P1;PMS_P2;Temp;Humidity;BMP_temperature;BMP_pressure;BME280_temperature;BME280_humidity;BME280_pressure;Samples;Min_cycle;Max_cycle;Signal;HPM_P1;HPM_P2
2021/12/30 00:02:25;;;;;;;197.38;88.05;;;6.80;99.90;;;;;;5076263;28;20039;-64
2021/12/30 00:04:51;;;;;;;233.38;100.82;;;6.80;99.90;;;;;;5076022;28;20024;-64
2021/12/30 00:07:17;;;;;;;213.93;96.72;;;6.80;99.90;;;;;;5076065;28;20034;-64
2021/12/30 00:09:44;;;;;;;222.10;98.85;;;6.80;99.90;;;;;;5075870;28;20039;-64
2021/12/30 00:12:10;;;;;;;205.27;94.03;;;6.80;99.90;;;;;;5075770;28;20036;-64
2021/12/30 00:14:36;;;;;;;218.23;97.72;;;6.80;99.90;;;;;;5075743;28;20377;-64
2021/12/30 00:17:02;;;;;;;185.20;88.15;;;6.90;99.90;;;;;;5077004;28;20059;-64
2021/12/30 00:19:28;;;;;;;269.65;116.40;;;6.90;99.90;;;;;;5095777;28;20032;-64
2021/12/30 00:21:54;;;;;;;245.55;110.40;;;6.80;99.90;;;;;;5095831;28;20036;-64
2021/12/30 00:24:20;;;;;;;317.80;133.38;;;6.80;99.90;;;;;;5095845;28;20032;-64
2021/12/30 00:26:46;;;;;;;421.85;166.82;;;6.90;99.90;;;;;;5095858;28;20115;-64
2021/12/30 00:29:12;;;;;;;234.52;109.85;;;6.90;99.90;;;;;;5095772;28;20494;-64
2021/12/30 00:31:38;;;;;;;228.68;110.80;;;6.90;99.90;;;;;;5095983;28;20047;-63
2021/12/30 00:34:04;;;;;;;219.38;100.95;;;6.80;99.90;;;;;;5095707;28;20085;-64
2021/12/30 00:36:30;;;;;;;224.20;101.35;;;6.80;99.90;;;;;;5094597;28;20043;-64
2021/12/30 00:38:56;;;;;;;232.82;106.35;;;6.80;99.90;;;;;;5095468;28;20120;-64
2021/12/30 00:41:22;;;;;;;246.05;109.65;;;6.70;99.90;;;;;;5095585;28;20051;-64
2021/12/30 00:43:48;;;;;;;232.30;105.68;;;6.70;99.90;;;;;;5095400;28;20436;-64
2021/12/30 00:46:14;;;;;;;220.60;105.20;;;6.80;99.90;;;;;;5095366;28;20501;-64
2021/12/30 00:48:41;;;;;;;230.13;107.82;;;6.90;99.90;;;;;;5095468;28;20036;-64
2021/12/30 00:51:08;;;;;;;219.00;103.18;;;6.80;99.90;;;;;;5077241;28;20397;-64
2021/12/30 00:53:34;;;;;;;204.77;96.38;;;6.80;99.90;;;;;;5095297;28;20032;-64
2021/12/30 00:56:01;;;;;;;192.88;95.10;;;6.80;99.90;;;;;;5095766;28;20103;-64
2021/12/30 00:58:27;;;;;;;215.52;107.38;;;6.80;99.90;;;;;;5095204;28;20036;-64
2021/12/30 01:00:54;;;;;;;228.40;111.85;;;6.80;99.90;;;;;;5095233;28;20057;-64
2021/12/30 01:03:20;;;;;;;248.65;114.75;;;6.80;99.90;;;;;;5095164;28;20489;-64
2021/12/30 01:05:47;;;;;;;228.25;110.55;;;6.80;99.90;;;;;;5095125;28;20482;-64
2021/12/30 01:08:14;;;;;;;232.40;113.07;;;6.70;99.90;;;;;;5095045;28;20505;-63
2021/12/30 01:10:40;;;;;;;203.20;100.20;;;6.70;99.90;;;;;;5095092;28;20028;-64
2021/12/30 01:13:10;;;;;;;232.15;112.00;;;6.70;99.90;;;;;;5082660;28;20498;-64
2021/12/30 01:16:16;;;;;;;274.60;125.57;;;6.70;99.90;;;;;;5074562;28;20146;-64
2021/12/30 01:21:09;;;;;;;424.73;149.00;;;6.70;99.90;;;;;;5074755;28;20036;-64
2021/12/30 01:23:36;;;;;;;386.55;145.05;;;6.80;99.90;;;;;;5074760;28;20389;-64
2021/12/30 01:26:03;;;;;;;329.02;133.10;;;6.70;99.90;;;;;;5074495;28;20122;-64
2021/12/30 01:28:30;;;;;;;335.55;131.88;;;6.80;99.90;;;;;;5074411;28;20497;-64
2021/12/30 01:30:56;;;;;;;305.23;127.97;;;6.70;99.90;;;;;;5074549;28;20036;-64
2021/12/30 01:33:22;;;;;;;346.88;134.82;;;6.70;99.90;;;;;;5074643;28;20064;-64
2021/12/30 01:35:48;;;;;;;369.00;142.65;;;6.70;99.90;;;;;;5074397;28;20386;-64
2021/12/30 01:38:16;;;;;;;326.65;133.25;;;6.70;99.90;;;;;;5074291;28;20071;-64
2021/12/30 01:40:46;;;;;;;325.30;128.40;;;6.70;99.90;;;;;;5074264;28;20541;-64
2021/12/30 01:43:13;;;;;;;339.17;136.53;;;6.70;99.90;;;;;;5074397;28;20052;-64
2021/12/30 01:45:41;;;;;;;335.20;135.88;;;6.70;99.90;;;;;;5074247;28;20028;-64
2021/12/30 01:48:07;;;;;;;450.55;161.73;;;6.60;99.90;;;;;;5074292;28;20056;-64
2021/12/30 01:50:34;;;;;;;282.25;122.05;;;6.60;99.90;;;;;;5074429;28;20047;-64
2021/12/30 01:53:01;;;;;;;286.17;119.18;;;6.60;99.90;;;;;;5074478;28;20036;-64
2021/12/30 01:55:27;;;;;;;270.05;118.90;;;6.60;99.90;;;;;;5074104;28;20039;-64
2021/12/30 01:57:53;;;;;;;283.80;121.65;;;6.70;99.90;;;;;;5074181;28;20497;-64
2021/12/30 02:00:24;;;;;;;298.70;130.20;;;6.70;99.90;;;;;;5074135;28;20474;-64
2021/12/30 02:02:50;;;;;;;280.20;118.03;;;6.70;99.90;;;;;;5074301;28;20123;-64
2021/12/30 02:05:17;;;;;;;274.55;122.75;;;6.70;99.90;;;;;;5074347;28;20095;-64
2021/12/30 02:07:44;;;;;;;286.30;120.05;;;6.70;99.90;;;;;;5074106;28;20084;-64
2021/12/30 02:10:12;;;;;;;287.52;116.22;;;6.60;99.90;;;;;;5074126;28;20112;-64
2021/12/30 02:12:39;;;;;;;366.98;134.40;;;6.70;99.90;;;;;;5073977;28;20430;-64
2021/12/30 02:15:09;;;;;;;373.85;139.70;;;6.70;99.90;;;;;;5074340;28;20047;-64
2021/12/30 02:17:35;;;;;;;284.77;120.15;;;6.70;99.90;;;;;;5074017;28;20036;-64
2021/12/30 02:20:05;;;;;;;287.48;121.40;;;6.70;99.90;;;;;;5074074;28;20115;-64
2021/12/30 02:22:31;;;;;;;310.65;120.82;;;6.70;99.90;;;;;;5074016;28;20040;-64
2021/12/30 02:24:59;;;;;;;389.48;143.10;;;6.60;99.90;;;;;;5074153;28;20049;-64
2021/12/30 02:27:27;;;;;;;301.50;119.85;;;6.60;99.90;;;;;;5074019;28;20355;-64
2021/12/30 02:29:53;;;;;;;463.92;164.23;;;6.60;99.90;;;;;;5073942;28;20052;-64
2021/12/30 02:32:22;;;;;;;352.00;130.25;;;6.60;99.90;;;;;;5073937;28;20115;-64
2021/12/30 02:34:49;;;;;;;436.52;148.27;;;6.60;99.90;;;;;;5073995;28;20119;-64
2021/12/30 02:37:17;;;;;;;571.08;176.80;;;6.60;99.90;;;;;;5073670;28;20021;-64
2021/12/30 02:39:47;;;;;;;419.45;141.82;;;6.60;99.90;;;;;;5073869;28;20037;-64
2021/12/30 02:42:14;;;;;;;435.05;147.73;;;6.60;99.90;;;;;;5073781;28;20099;-64
2021/12/30 02:44:40;;;;;;;340.65;121.18;;;6.50;99.90;;;;;;5073826;28;20056;-64
2021/12/30 02:47:06;;;;;;;396.23;138.90;;;6.50;99.90;;;;;;5073567;28;20277;-64
2021/12/30 02:49:32;;;;;;;332.33;127.22;;;6.60;99.90;;;;;;5073678;28;20589;-64
2021/12/30 02:51:58;;;;;;;328.42;121.95;;;6.50;99.90;;;;;;5073583;28;20071;-64
2021/12/30 02:54:24;;;;;;;273.38;108.82;;;6.50;99.90;;;;;;5073657;28;20056;-64
2021/12/30 02:56:50;;;;;;;276.55;104.80;;;6.60;99.90;;;;;;5073631;28;20080;-64
2021/12/30 02:59:18;;;;;;;262.15;99.95;;;6.60;99.90;;;;;;5073741;28;20037;-64
2021/12/30 03:01:44;;;;;;;205.45;84.72;;;6.60;99.90;;;;;;5076787;28;20033;-64
2021/12/30 03:04:12;;;;;;;186.95;70.38;;;6.60;99.90;;;;;;5077378;28;20033;-64
2021/12/30 03:06:38;;;;;;;192.63;73.65;;;6.60;99.90;;;;;;5077085;28;20039;-64
2021/12/30 03:09:05;;;;;;;201.88;83.72;;;6.50;99.90;;;;;;5077202;28;20498;-64
2021/12/30 03:11:31;;;;;;;173.63;75.93;;;6.50;99.90;;;;;;5076986;28;20048;-64
2021/12/30 03:13:57;;;;;;;192.20;82.80;;;6.40;99.90;;;;;;5076558;28;20048;-64
2021/12/30 03:16:32;;;;;;;171.90;67.13;;;6.30;99.90;;;;;;5076836;28;20045;-64
2021/12/30 03:18:58;;;;;;;208.35;71.50;;;6.30;99.90;;;;;;5076827;28;20052;-64
2021/12/30 03:21:26;;;;;;;176.50;70.45;;;6.40;99.90;;;;;;5076709;28;20124;-64
2021/12/30 03:23:54;;;;;;;297.48;85.85;;;6.30;99.90;;;;;;5076837;28;20028;-64
2021/12/30 03:26:20;;;;;;;159.57;68.25;;;6.30;99.90;;;;;;5076854;28;20040;-64
2021/12/30 03:28:47;;;;;;;220.55;71.40;;;6.30;99.90;;;;;;5076636;28;20032;-64
2021/12/30 03:31:15;;;;;;;213.05;72.05;;;6.30;99.90;;;;;;5076604;28;20045;-64
2021/12/30 03:33:41;;;;;;;319.17;80.50;;;6.40;99.90;;;;;;5076640;28;20548;-64
2021/12/30 03:36:09;;;;;;;193.43;68.30;;;6.30;99.90;;;;;;5076466;28;20041;-64
2021/12/30 03:38:39;;;;;;;270.45;76.13;;;6.30;99.90;;;;;;5076738;28;20036;-64
2021/12/30 03:41:07;;;;;;;286.17;80.50;;;6.20;99.90;;;;;;5076437;28;20055;-64
2021/12/30 03:43:34;;;;;;;238.52;62.75;;;6.20;99.90;;;;;;5076434;28;20297;-64
2021/12/30 03:46:00;;;;;;;133.98;55.22;;;6.30;99.90;;;;;;5076254;28;20069;-64
2021/12/30 03:48:33;;;;;;;185.38;55.70;;;6.30;99.90;;;;;;5058262;28;20255;-65
2021/12/30 03:51:04;;;;;;;225.80;58.33;;;6.20;99.90;;;;;;5076200;28;20040;-64
2021/12/30 03:53:31;;;;;;;166.88;54.75;;;6.20;99.90;;;;;;5076254;28;20037;-64
2021/12/30 03:55:57;;;;;;;196.32;53.53;;;6.20;99.90;;;;;;5076495;28;20032;-65
2021/12/30 03:58:23;;;;;;;203.90;53.92;;;6.10;99.90;;;;;;5076143;28;20035;-64
2021/12/30 04:00:49;;;;;;;134.45;52.25;;;6.10;99.90;;;;;;5076242;28;20484;-64
2021/12/30 04:03:15;;;;;;;215.68;54.67;;;6.10;99.90;;;;;;5076232;28;20032;-64
2021/12/30 04:05:41;;;;;;;138.00;51.53;;;6.10;99.90;;;;;;5076048;28;20040;-64
2021/12/30 04:08:09;;;;;;;162.55;54.25;;;6.10;99.90;;;;;;5076151;28;20044;-65
2021/12/30 04:10:35;;;;;;;284.65;57.75;;;6.10;99.90;;;;;;5075502;28;20071;-64
2021/12/30 04:13:01;;;;;;;207.52;50.97;;;6.00;99.90;;;;;;5075766;28;20063;-64
2021/12/30 04:15:27;;;;;;;180.15;49.80;;;6.00;99.90;;;;;;5075910;28;20041;-64
2021/12/30 04:17:53;;;;;;;152.25;46.03;;;6.00;99.90;;;;;;5075359;28;20100;-64
2021/12/30 04:20:19;;;;;;;417.85;58.28;;;6.00;99.90;;;;;;5076240;28;20029;-65
2021/12/30 04:22:45;;;;;;;159.50;40.35;;;6.00;99.90;;;;;;5075709;28;20066;-64
2021/12/30 04:25:13;;;;;;;152.05;43.85;;;6.00;99.90;;;;;;5075535;28;20382;-64
2021/12/30 04:27:40;;;;;;;83.00;36.78;;;6.00;99.90;;;;;;5075617;28;20119;-64
2021/12/30 04:30:08;;;;;;;251.38;44.05;;;6.00;99.90;;;;;;5075596;28;20040;-64
2021/12/30 04:32:34;;;;;;;103.00;32.28;;;5.90;99.90;;;;;;5075332;28;20475;-64
2021/12/30 04:35:00;;;;;;;127.22;33.13;;;6.00;99.90;;;;;;5075581;28;20090;-64
2021/12/30 04:37:26;;;;;;;138.82;34.95;;;5.90;99.90;;;;;;5075390;28;20037;-64
2021/12/30 04:39:52;;;;;;;97.55;34.90;;;5.80;99.90;;;;;;5075253;28;20032;-64
2021/12/30 04:42:18;;;;;;;134.20;36.38;;;5.80;99.90;;;;;;5075490;28;20032;-64
2021/12/30 04:44:44;;;;;;;146.55;40.60;;;5.90;99.90;;;;;;5075230;28;20044;-64
2021/12/30 04:47:11;;;;;;;141.02;41.95;;;5.80;99.90;;;;;;5074851;28;20040;-64
2021/12/30 04:49:37;;;;;;;136.48;41.95;;;5.80;99.90;;;;;;5075149;28;20040;-64
2021/12/30 04:52:03;;;;;;;143.90;44.65;;;5.80;99.90;;;;;;5075052;28;20067;-64
2021/12/30 04:54:30;;;;;;;172.02;48.00;;;5.90;99.90;;;;;;5074943;28;20036;-64
2021/12/30 04:56:56;;;;;;;119.93;41.60;;;5.90;99.90;;;;;;5075130;28;20060;-64
2021/12/30 04:59:22;;;;;;;108.65;41.05;;;5.90;99.90;;;;;;5074867;28;20119;-64
2021/12/30 05:01:49;;;;;;;158.10;53.42;;;6.00;99.90;;;;;;5075020;28;20635;-65
2021/12/30 05:04:14;;;;;;;137.90;50.42;;;5.90;99.90;;;;;;5074944;28;20039;-64
2021/12/30 05:06:40;;;;;;;231.63;62.35;;;6.00;99.90;;;;;;5075048;28;20040;-65
2021/12/30 05:09:09;;;;;;;322.88;69.38;;;5.90;99.90;;;;;;5074931;28;20036;-62
2021/12/30 05:11:40;;;;;;;208.57;62.10;;;5.90;99.90;;;;;;5074804;28;20112;-64
2021/12/30 05:14:07;;;;;;;196.10;63.50;;;5.90;99.90;;;;;;5054668;28;20237;-64
2021/12/30 05:16:33;;;;;;;199.48;67.55;;;5.90;99.90;;;;;;5054732;28;20040;-65
2021/12/30 05:18:59;;;;;;;346.60;89.57;;;5.90;99.90;;;;;;5089495;28;20042;-64
2021/12/30 05:21:25;;;;;;;246.85;77.80;;;5.90;99.90;;;;;;5094907;28;20028;-65
2021/12/30 05:23:52;;;;;;;321.75;83.03;;;5.90;99.90;;;;;;5094423;28;20035;-65
2021/12/30 05:26:18;;;;;;;214.32;75.40;;;5.90;99.90;;;;;;5095026;28;20043;-64
2021/12/30 05:28:45;;;;;;;251.32;72.97;;;5.90;99.90;;;;;;5094834;28;20042;-64
2021/12/30 05:31:11;;;;;;;192.85;66.72;;;5.80;99.90;;;;;;5094720;28;20032;-65
2021/12/30 05:33:38;;;;;;;202.52;64.20;;;5.80;99.90;;;;;;5094789;28;20474;-64
2021/12/30 05:36:04;;;;;;;260.05;74.10;;;5.80;99.90;;;;;;5094836;28;20047;-64
2021/12/30 05:38:30;;;;;;;200.85;66.80;;;5.80;99.90;;;;;;5094679;28;20040;-64
2021/12/30 05:40:56;;;;;;;246.85;67.68;;;5.80;99.90;;;;;;5094756;28;20496;-64
2021/12/30 05:43:22;;;;;;;148.48;60.90;;;5.90;99.90;;;;;;5094330;28;20044;-65
2021/12/30 05:45:48;;;;;;;209.93;67.78;;;5.90;99.90;;;;;;5094435;28;20051;-65
2021/12/30 05:48:14;;;;;;;250.82;69.85;;;5.80;99.90;;;;;;5094503;28;20075;-64
2021/12/30 05:50:40;;;;;;;187.30;63.83;;;5.80;99.90;;;;;;5094040;28;20032;-65
2021/12/30 05:53:06;;;;;;;163.23;66.13;;;5.70;99.90;;;;;;5094491;28;20036;-65
2021/12/30 05:55:32;;;;;;;336.02;76.13;;;5.70;99.90;;;;;;5094411;28;20046;-64
2021/12/30 05:57:58;;;;;;;177.80;69.38;;;5.70;99.90;;;;;;5093996;28;20090;-65
2021/12/30 06:00:27;;;;;;;275.83;80.63;;;5.70;99.90;;;;;;5094466;28;20086;-65
2021/12/30 06:02:53;;;;;;;220.48;84.43;;;5.70;99.90;;;;;;5094349;28;20118;-65
2021/12/30 06:05:19;;;;;;;261.45;86.88;;;5.70;99.90;;;;;;5094660;28;20035;-64
2021/12/30 06:07:45;;;;;;;277.42;101.07;;;5.70;99.90;;;;;;5094515;28;20040;-65
2021/12/30 06:10:12;;;;;;;242.30;89.63;;;5.70;99.90;;;;;;5094183;28;20123;-65
2021/12/30 06:12:38;;;;;;;234.95;92.22;;;5.70;99.90;;;;;;5086070;28;20024;-65
2021/12/30 06:15:05;;;;;;;302.33;110.97;;;5.70;99.90;;;;;;5074150;28;20066;-65
2021/12/30 06:17:31;;;;;;;239.32;98.90;;;5.80;99.90;;;;;;5075102;28;20024;-65
2021/12/30 06:19:57;;;;;;;213.35;82.53;;;5.80;99.90;;;;;;5057764;28;20434;-65
2021/12/30 06:22:23;;;;;;;214.77;89.10;;;5.90;99.90;;;;;;5064113;28;20036;-64
2021/12/30 06:24:49;;;;;;;207.88;85.82;;;5.90;99.90;;;;;;5065127;28;20036;-67
2021/12/30 06:27:15;;;;;;;218.25;83.93;;;6.00;99.90;;;;;;5058406;28;20037;-67
2021/12/30 06:29:44;;;;;;;222.40;86.45;;;6.00;99.90;;;;;;5068334;28;20183;-67
2021/12/30 06:32:10;;;;;;;267.23;94.68;;;5.90;99.90;;;;;;5083261;28;20071;-66
2021/12/30 06:34:37;;;;;;;237.50;90.80;;;5.90;99.90;;;;;;5071907;28;20142;-66
2021/12/30 06:37:03;;;;;;;294.13;89.30;;;5.80;99.90;;;;;;5075772;28;20306;-65
2021/12/30 06:39:29;;;;;;;247.82;87.38;;;5.80;99.90;;;;;;5068678;28;20367;-65
2021/12/30 06:41:55;;;;;;;222.40;76.85;;;5.90;99.90;;;;;;5074924;28;20032;-66
2021/12/30 06:44:21;;;;;;;194.90;72.15;;;5.90;99.90;;;;;;5077585;28;20550;-67
2021/12/30 06:46:57;;;;;;;193.65;69.22;;;5.90;99.90;;;;;;5082926;28;20143;-67
2021/12/30 06:49:25;;;;;;;238.63;65.30;;;6.00;99.90;;;;;;5077886;28;20462;-65
2021/12/30 06:51:51;;;;;;;154.43;60.47;;;6.00;99.90;;;;;;5085314;28;20028;-67
2021/12/30 06:54:17;;;;;;;140.90;57.95;;;6.00;99.90;;;;;;5070398;28;20049;-66
2021/12/30 06:56:43;;;;;;;196.95;70.97;;;5.90;99.90;;;;;;5071966;28;20041;-67
2021/12/30 06:59:14;;;;;;;158.15;63.78;;;5.70;99.90;;;;;;5079896;28;20036;-66
2021/12/30 07:01:43;;;;;;;184.23;69.70;;;5.70;99.90;;;;;;5074993;28;20059;-67
2021/12/30 07:04:09;;;;;;;162.88;67.45;;;5.80;99.90;;;;;;5076058;28;20118;-66
2021/12/30 07:06:35;;;;;;;164.18;65.88;;;5.70;99.90;;;;;;5057454;28;20028;-66
2021/12/30 07:09:03;;;;;;;152.32;64.25;;;5.70;99.90;;;;;;5056336;28;20047;-66
2021/12/30 07:11:29;;;;;;;151.20;64.35;;;5.80;99.90;;;;;;5076024;28;20067;-65
2021/12/30 07:13:58;;;;;;;187.15;70.63;;;5.80;99.90;;;;;;5073626;28;20040;-66
2021/12/30 07:16:24;;;;;;;174.15;67.63;;;5.80;99.90;;;;;;5072176;28;20619;-67
2021/12/30 07:18:51;;;;;;;189.75;66.60;;;5.80;99.90;;;;;;5063949;28;20035;-66
2021/12/30 07:21:18;;;;;;;157.95;61.38;;;5.80;99.90;;;;;;5076705;28;20032;-67
2021/12/30 07:23:44;;;;;;;134.70;58.22;;;5.70;99.90;;;;;;5039059;28;20127;-66
2021/12/30 07:26:10;;;;;;;148.32;58.90;;;5.80;99.90;;;;;;5076978;28;20086;-67
2021/12/30 07:28:36;;;;;;;146.82;59.47;;;5.90;99.90;;;;;;5083672;28;20398;-67
2021/12/30 07:31:02;;;;;;;152.95;60.22;;;5.80;99.90;;;;;;5073068;28;20120;-67
2021/12/30 07:33:28;;;;;;;188.80;65.97;;;5.80;99.90;;;;;;5073497;28;20044;-66
2021/12/30 07:35:54;;;;;;;177.77;65.97;;;5.70;99.90;;;;;;5078735;28;20059;-66
2021/12/30 07:38:22;;;;;;;159.63;67.30;;;5.70;99.90;;;;;;5056085;28;20099;-67
2021/12/30 07:40:49;;;;;;;154.07;64.22;;;5.80;99.90;;;;;;5051057;28;20031;-67
2021/12/30 07:43:16;;;;;;;161.48;64.40;;;5.90;99.90;;;;;;5084268;28;20051;-67
2021/12/30 07:45:42;;;;;;;153.82;66.80;;;5.90;99.90;;;;;;5086007;28;20401;-67
2021/12/30 07:48:08;;;;;;;148.75;61.35;;;5.90;99.90;;;;;;5065661;28;20059;-67
2021/12/30 07:50:34;;;;;;;145.20;58.80;;;6.00;99.90;;;;;;5063074;28;20044;-66
2021/12/30 07:53:03;;;;;;;167.15;67.70;;;6.00;99.90;;;;;;5063623;28;20494;-67
2021/12/30 07:55:32;;;;;;;163.02;65.05;;;6.00;99.90;;;;;;5054792;28;20423;-66
2021/12/30 07:57:59;;;;;;;159.15;61.42;;;6.10;99.90;;;;;;5063230;28;20055;-66
2021/12/30 08:00:25;;;;;;;150.23;61.90;;;6.10;99.90;;;;;;5053291;28;20041;-67
2021/12/30 08:02:52;;;;;;;163.65;63.60;;;6.20;99.90;;;;;;5051444;28;20033;-66
2021/12/30 08:05:18;;;;;;;150.00;61.05;;;6.30;99.90;;;;;;5031953;28;20067;-66
2021/12/30 08:07:46;;;;;;;170.57;63.75;;;6.40;99.90;;;;;;5049682;28;20029;-66
2021/12/30 08:10:14;;;;;;;138.80;60.95;;;6.30;99.90;;;;;;5051493;28;20025;-67
2021/12/30 08:12:42;;;;;;;211.70;70.28;;;6.30;99.90;;;;;;5055033;28;20041;-67
2021/12/30 08:15:09;;;;;;;158.00;65.45;;;6.30;99.90;;;;;;5062032;28;20037;-67
2021/12/30 08:17:36;;;;;;;185.60;77.47;;;6.30;99.90;;;;;;5040099;28;20032;-66
2021/12/30 08:20:07;;;;;;;163.98;70.53;;;6.40;99.90;;;;;;5060413;28;20029;-67
2021/12/30 08:22:34;;;;;;;128.95;60.47;;;6.50;99.90;;;;;;5038148;28;20227;-67
2021/12/30 08:25:00;;;;;;;175.82;77.63;;;6.40;99.90;;;;;;5062957;28;20079;-66
2021/12/30 08:27:27;;;;;;;159.27;67.88;;;6.50;99.90;;;;;;5058076;28;20267;-66
2021/12/30 08:29:53;;;;;;;145.20;61.50;;;6.50;99.90;;;;;;5072622;28;20042;-67
2021/12/30 08:32:19;;;;;;;142.40;60.55;;;6.50;99.90;;;;;;5073256;28;20029;-67
2021/12/30 08:34:46;;;;;;;202.18;76.35;;;6.50;99.90;;;;;;5055135;28;20037;-67
2021/12/30 08:37:13;;;;;;;190.43;76.05;;;6.50;99.90;;;;;;5074200;28;20094;-67
2021/12/30 08:39:40;;;;;;;165.50;65.90;;;6.70;99.90;;;;;;5075136;28;20036;-68
2021/12/30 08:42:20;;;;;;;162.35;70.88;;;6.70;99.90;;;;;;5068166;28;20115;-67
2021/12/30 08:44:48;;;;;;;209.80;70.53;;;6.80;99.90;;;;;;5083055;28;20033;-67
2021/12/30 08:47:15;;;;;;;197.32;76.03;;;6.80;99.90;;;;;;5057379;28;20106;-67
2021/12/30 08:49:45;;;;;;;197.68;72.88;;;6.90;99.90;;;;;;5078854;28;20035;-67
2021/12/30 08:52:15;;;;;;;194.55;76.40;;;7.00;99.90;;;;;;5059587;28;20047;-67
2021/12/30 08:54:43;;;;;;;172.73;71.68;;;7.00;99.90;;;;;;5059305;28;20033;-67
2021/12/30 08:57:13;;;;;;;194.70;76.18;;;7.20;99.90;;;;;;5075050;28;20041;-66
2021/12/30 08:59:39;;;;;;;231.63;73.57;;;7.20;99.90;;;;;;5085604;28;20124;-68
2021/12/30 09:02:07;;;;;;;190.70;71.50;;;7.20;99.90;;;;;;5090787;28;20064;-67
2021/12/30 09:04:33;;;;;;;191.38;73.55;;;7.30;99.90;;;;;;5081498;28;20040;-67
2021/12/30 09:07:03;;;;;;;185.27;73.32;;;7.20;99.90;;;;;;5078693;28;20032;-67
2021/12/30 09:09:29;;;;;;;207.88;75.05;;;7.10;99.90;;;;;;5076243;28;20036;-67
2021/12/30 09:11:56;;;;;;;213.95;73.00;;;7.20;99.90;;;;;;5066905;28;20075;-66
2021/12/30 09:17:49;;;;;;;165.05;70.13;;;7.10;99.90;;;;;;5076900;28;20082;-66
2021/12/30 09:20:23;;;;;;;146.57;64.72;;;7.30;99.90;;;;;;5070889;28;20486;-66
2021/12/30 09:22:50;;;;;;;156.40;68.28;;;7.40;99.90;;;;;;5073087;28;20126;-67
2021/12/30 09:25:19;;;;;;;192.55;71.47;;;7.60;99.90;;;;;;5071101;28;20048;-67
2021/12/30 09:27:45;;;;;;;161.45;71.15;;;7.60;99.90;;;;;;5089712;28;20036;-67
2021/12/30 09:30:13;;;;;;;162.48;72.60;;;7.70;99.90;;;;;;5079787;28;20074;-67
2021/12/30 09:32:41;;;;;;;186.50;77.10;;;7.70;99.90;;;;;;5064937;28;20068;-67
2021/12/30 09:35:09;;;;;;;179.13;75.25;;;7.70;99.90;;;;;;5055631;28;20052;-67
2021/12/30 09:37:35;;;;;;;180.77;77.30;;;7.70;99.90;;;;;;5060658;28;20040;-67
2021/12/30 09:40:02;;;;;;;170.68;72.80;;;7.70;99.90;;;;;;5061496;28;20036;-67
2021/12/30 09:42:28;;;;;;;184.75;73.80;;;7.90;99.90;;;;;;5067151;28;20036;-66
2021/12/30 09:44:54;;;;;;;165.07;70.95;;;8.10;99.90;;;;;;5062980;28;20029;-65
2021/12/30 09:47:21;;;;;;;172.10;71.65;;;8.00;99.90;;;;;;5070029;28;20028;-65
2021/12/30 09:49:50;;;;;;;161.65;68.20;;;8.10;99.90;;;;;;5056094;28;20044;-66
2021/12/30 09:52:17;;;;;;;176.35;72.65;;;8.20;99.90;;;;;;5072244;28;20036;-66
2021/12/30 09:54:43;;;;;;;192.13;77.00;;;8.20;99.90;;;;;;5073841;28;20051;-66
2021/12/30 09:57:09;;;;;;;195.10;79.90;;;8.20;99.90;;;;;;5074905;28;20502;-66
2021/12/30 09:59:35;;;;;;;189.93;74.65;;;8.50;99.90;;;;;;5074945;28;20179;-66
2021/12/30 10:02:01;;;;;;;188.18;74.68;;;8.60;99.90;;;;;;5074703;28;20044;-66
2021/12/30 10:04:32;;;;;;;215.65;77.75;;;8.90;99.90;;;;;;5074133;28;20540;-66
2021/12/30 10:07:00;;;;;;;182.93;70.78;;;9.20;99.90;;;;;;5073765;28;20523;-66
2021/12/30 10:09:49;;;;;;;189.68;70.13;;;9.30;99.90;;;;;;5075724;28;20121;-66
2021/12/30 10:12:31;;;;;;;194.60;74.63;;;9.50;99.90;;;;;;5078045;28;20020;-66
2021/12/30 10:14:57;;;;;;;212.18;85.75;;;9.50;99.90;;;;;;5078093;28;20628;-66
2021/12/30 10:17:26;;;;;;;225.05;89.80;;;9.70;99.90;;;;;;5073889;28;20065;-66
2021/12/30 10:19:53;;;;;;;235.23;92.25;;;9.90;99.90;;;;;;5077968;28;20047;-66
2021/12/30 10:22:23;;;;;;;257.25;95.15;;;10.00;99.90;;;;;;5078077;28;20028;-66
2021/12/30 10:24:50;;;;;;;241.13;93.03;;;10.00;99.90;;;;;;5077982;28;20034;-66
2021/12/30 10:27:28;;;;;;;251.65;96.30;;;9.90;99.90;;;;;;5077745;28;20537;-66
2021/12/30 10:29:55;;;;;;;260.60;98.97;;;10.00;99.90;;;;;;5077920;28;20115;-66
2021/12/30 10:32:27;;;;;;;245.35;96.60;;;10.00;99.90;;;;;;5088138;28;20035;-66
2021/12/30 10:35:06;;;;;;;278.60;96.03;;;10.00;99.90;;;;;;5097801;28;20039;-66
2021/12/30 10:37:33;;;;;;;217.25;85.57;;;10.20;99.90;;;;;;5098251;28;20443;-66
2021/12/30 10:39:59;;;;;;;219.57;91.18;;;10.20;99.90;;;;;;5097690;28;20390;-66
2021/12/30 10:42:30;;;;;;;211.35;87.40;;;10.20;99.90;;;;;;5097650;28;20028;-66
2021/12/30 10:45:19;;;;;;;203.15;78.15;;;10.30;99.90;;;;;;5097936;28;20032;-66
2021/12/30 10:47:54;;;;;;;173.40;63.40;;;10.50;99.90;;;;;;5097097;28;20111;-66
2021/12/30 10:50:22;;;;;;;183.43;69.32;;;10.40;99.90;;;;;;5097642;28;20087;-66
2021/12/30 10:52:52;;;;;;;200.32;77.72;;;10.30;99.90;;;;;;5097798;28;20369;-67
2021/12/30 10:55:19;;;;;;;225.73;86.70;;;10.70;99.90;;;;;;5097231;28;20070;-67
2021/12/30 10:57:45;;;;;;;240.00;82.60;;;11.10;99.90;;;;;;5096989;28;20119;-67
2021/12/30 11:00:30;;;;;;;186.75;72.40;;;11.90;99.90;;;;;;5097857;28;20115;-67
2021/12/30 11:03:15;;;;;;;203.82;72.82;;;12.60;99.90;;;;;;5097826;28;20028;-67
2021/12/30 11:06:17;;;;;;;186.98;70.85;;;13.20;99.90;;;;;;5097429;28;20031;-67
2021/12/30 11:08:42;;;;;;;;;;;14.20;99.90;;;;;;5097837;28;20044;-69
2021/12/30 11:11:29;;;;;;;198.48;76.35;;;14.80;99.90;;;;;;5097240;28;20381;-68
2021/12/30 11:14:07;;;;;;;218.70;81.95;;;15.10;99.90;;;;;;5078644;28;20044;-67
2021/12/30 11:16:52;;;;;;;201.57;76.50;;;15.40;99.90;;;;;;5076562;28;20075;-67
2021/12/30 11:19:19;;;;;;;180.82;71.28;;;15.60;99.90;;;;;;5076962;28;20048;-67
2021/12/30 11:21:49;;;;;;;192.48;76.30;;;15.40;99.90;;;;;;5075820;28;20056;-67
2021/12/30 11:24:15;;;;;;;207.75;76.30;;;15.90;99.90;;;;;;5076618;28;20029;-68
2021/12/30 11:26:41;;;;;;;221.05;79.45;;;16.30;99.90;;;;;;5076689;28;20052;-67
2021/12/30 11:29:07;;;;;;;161.23;66.32;;;16.60;99.90;;;;;;5076773;28;20044;-67
2021/12/30 11:31:34;;;;;;;155.65;62.42;;;16.70;99.90;;;;;;5076586;28;20128;-68
2021/12/30 11:34:01;;;;;;;179.77;54.30;;;16.90;99.90;;;;;;5076621;28;20498;-69
2021/12/30 11:36:30;;;;;;;153.73;56.50;;;17.20;99.90;;;;;;5076571;28;20044;-68
2021/12/30 11:39:03;;;;;;;114.05;51.95;;;17.80;98.40;;;;;;5076312;28;20084;-68
2021/12/30 11:41:32;;;;;;;140.90;55.13;;;18.10;98.40;;;;;;5076562;28;20044;-67
2021/12/30 11:43:58;;;;;;;140.95;54.10;;;18.60;97.80;;;;;;5076287;28;20052;-67
2021/12/30 11:46:44;;;;;;;99.32;47.95;;;18.30;96.30;;;;;;5076073;28;20546;-66
2021/12/30 11:49:12;;;;;;;111.25;47.38;;;17.80;96.40;;;;;;5076480;28;20029;-66
2021/12/30 11:51:47;;;;;;;123.63;52.47;;;17.60;97.00;;;;;;5076243;28;20037;-66
2021/12/30 11:54:41;;;;;;;105.70;47.75;;;17.30;98.20;;;;;;5076265;28;20036;-66
2021/12/30 11:57:26;;;;;;;116.35;47.17;;;17.70;97.70;;;;;;5073240;28;20048;-66
2021/12/30 11:59:56;;;;;;;108.47;46.90;;;18.40;96.70;;;;;;5075837;28;20040;-66
2021/12/30 12:02:33;;;;;;;;;;;18.30;96.30;;;;;;5076945;28;20059;-66
2021/12/30 12:05:39;;;;;;;83.55;41.40;;;17.80;97.00;;;;;;5076010;28;19951;-65
2021/12/30 12:08:07;;;;;;;108.30;43.40;;;17.60;96.90;;;;;;5075970;28;20211;-65
2021/12/30 12:10:33;;;;;;;64.35;30.35;;;17.80;96.20;;;;;;5075940;28;20036;-65
2021/12/30 12:13:31;;;;;;;74.60;32.45;;;17.40;95.70;;;;;;5076168;28;20478;-65
2021/12/30 12:15:58;;;;;;;68.82;29.50;;;16.90;97.60;;;;;;5075875;28;20056;-65
2021/12/30 12:18:24;;;;;;;61.67;24.35;;;16.60;98.20;;;;;;5088049;28;20035;-64
2021/12/30 12:20:53;;;;;;;40.28;19.67;;;16.30;97.90;;;;;;5095868;28;20061;-65
2021/12/30 12:23:42;;;;;;;54.67;21.08;;;16.10;98.70;;;;;;5095870;28;20059;-64
2021/12/30 12:26:12;;;;;;;32.92;15.65;;;16.10;98.60;;;;;;5096241;28;20157;-64
2021/12/30 12:28:38;;;;;;;46.47;17.75;;;16.00;96.20;;;;;;5095673;28;20051;-64
2021/12/30 12:31:09;;;;;;;54.47;19.08;;;16.00;97.30;;;;;;5096024;28;20114;-64
2021/12/30 12:33:36;;;;;;;;;;;15.50;98.70;;;;;;5055664;28;20045;-64
2021/12/30 12:36:14;;;;;;;71.05;19.13;;;15.40;99.90;;;;;;5055163;28;19909;-64
2021/12/30 12:38:44;;;;;;;41.92;16.10;;;15.50;99.90;;;;;;5055319;28;20083;-64